sensor_id;sensor_type;location;lat;lon;timestamp;P1;durP1;ratioP1;P2;durP2;ratioP2
12088;SDS011;6107;49.078;8.578;2022-12-18T00:01:24;56.03;;;21.93;;
12088;SDS011;6107;49.078;8.578;2022-12-18T00:03:58;45.00;;;18.23;;
12088;SDS011;6107;49.078;8.578;2022-12-18T00:06:25;46.40;;;19.33;;
12088;SDS011;6107;49.078;8.578;2022-12-18T00:08:53;52.63;;;20.10;;
12088;SDS011;6107;49.078;8.578;2022-12-18T00:11:21;53.03;;;19.27;;
12088;SDS011;6107;49.078;8.578;2022-12-18T00:13:48;55.97;;;17.97;;
12088;SDS011;6107;49.078;8.578;2022-12-18T00:16:15;50.77;;;20.00;;
12088;SDS011;6107;49.078;8.578;2022-12-18T00:18:45;51.93;;;19.73;;
12088;SDS011;6107;49.078;8.578;2022-12-18T00:21:12;51.73;;;19.53;;
12088;SDS011;6107;49.078;8.578;2022-12-18T00:23:39;44.93;;;18.97;;
12088;SDS011;6107;49.078;8.578;2022-12-18T00:26:10;54.80;;;20.00;;
12088;SDS011;6107;49.078;8.578;2022-12-18T00:28:37;47.53;;;19.60;;
12088;SDS011;6107;49.078;8.578;2022-12-18T00:31:04;54.00;;;20.33;;
12088;SDS011;6107;49.078;8.578;2022-12-18T00:33:32;47.37;;;20.17;;
12088;SDS011;6107;49.078;8.578;2022-12-18T00:36:02;53.93;;;20.57;;
12088;SDS011;6107;49.078;8.578;2022-12-18T00:38:28;48.77;;;19.10;;
12088;SDS011;6107;49.078;8.578;2022-12-18T00:40:54;42.03;;;18.40;;
12088;SDS011;6107;49.078;8.578;2022-12-18T00:43:20;46.77;;;18.27;;
12088;SDS011;6107;49.078;8.578;2022-12-18T00:45:45;45.67;;;18.13;;
12088;SDS011;6107;49.078;8.578;2022-12-18T00:48:11;50.67;;;19.60;;
12088;SDS011;6107;49.078;8.578;2022-12-18T00:50:36;55.63;;;20.20;;
12088;SDS011;6107;49.078;8.578;2022-12-18T00:53:02;49.03;;;19.33;;
12088;SDS011;6107;49.078;8.578;2022-12-18T00:55:28;50.73;;;19.57;;
12088;SDS011;6107;49.078;8.578;2022-12-18T00:57:53;49.07;;;19.37;;
12088;SDS011;6107;49.078;8.578;2022-12-18T01:00:19;47.73;;;19.27;;
12088;SDS011;6107;49.078;8.578;2022-12-18T01:02:44;44.40;;;19.00;;
12088;SDS011;6107;49.078;8.578;2022-12-18T01:05:14;44.77;;;18.03;;
12088;SDS011;6107;49.078;8.578;2022-12-18T01:07:40;41.50;;;17.73;;
12088;SDS011;6107;49.078;8.578;2022-12-18T01:10:05;49.90;;;19.10;;
12088;SDS011;6107;49.078;8.578;2022-12-18T01:12:33;43.53;;;18.40;;
12088;SDS011;6107;49.078;8.578;2022-12-18T01:14:59;52.33;;;18.53;;
12088;SDS011;6107;49.078;8.578;2022-12-18T01:17:24;52.30;;;19.63;;
12088;SDS011;6107;49.078;8.578;2022-12-18T01:19:50;41.30;;;17.03;;
12088;SDS011;6107;49.078;8.578;2022-12-18T01:22:15;50.40;;;18.70;;
12088;SDS011;6107;49.078;8.578;2022-12-18T01:24:41;47.80;;;18.83;;
12088;SDS011;6107;49.078;8.578;2022-12-18T01:27:06;54.10;;;18.77;;
12088;SDS011;6107;49.078;8.578;2022-12-18T01:29:32;47.13;;;18.60;;
12088;SDS011;6107;49.078;8.578;2022-12-18T01:31:58;52.47;;;19.00;;
12088;SDS011;6107;49.078;8.578;2022-12-18T01:34:24;48.70;;;19.07;;
12088;SDS011;6107;49.078;8.578;2022-12-18T01:36:49;45.67;;;18.53;;
12088;SDS011;6107;49.078;8.578;2022-12-18T01:39:18;42.03;;;18.33;;
12088;SDS011;6107;49.078;8.578;2022-12-18T01:41:44;44.00;;;19.30;;
12088;SDS011;6107;49.078;8.578;2022-12-18T01:50:08;52.07;;;20.07;;
12088;SDS011;6107;49.078;8.578;2022-12-18T01:52:46;57.10;;;20.07;;
12088;SDS011;6107;49.078;8.578;2022-12-18T01:55:24;47.70;;;19.30;;
12088;SDS011;6107;49.078;8.578;2022-12-18T01:57:52;69.80;;;27.93;;
12088;SDS011;6107;49.078;8.578;2022-12-18T02:00:21;51.07;;;20.10;;
12088;SDS011;6107;49.078;8.578;2022-12-18T02:02:48;47.40;;;18.93;;
12088;SDS011;6107;49.078;8.578;2022-12-18T02:05:15;50.20;;;19.47;;
12088;SDS011;6107;49.078;8.578;2022-12-18T02:07:57;46.87;;;20.03;;
12088;SDS011;6107;49.078;8.578;2022-12-18T02:10:41;45.93;;;19.57;;
12088;SDS011;6107;49.078;8.578;2022-12-18T02:19:14;52.40;;;19.27;;
12088;SDS011;6107;49.078;8.578;2022-12-18T02:26:55;46.43;;;18.80;;
12088;SDS011;6107;49.078;8.578;2022-12-18T02:29:24;49.60;;;19.97;;
12088;SDS011;6107;49.078;8.578;2022-12-18T02:31:56;43.77;;;18.90;;
12088;SDS011;6107;49.078;8.578;2022-12-18T02:34:28;48.73;;;19.37;;
12088;SDS011;6107;49.078;8.578;2022-12-18T02:36:57;45.17;;;19.43;;
12088;SDS011;6107;49.078;8.578;2022-12-18T02:39:26;43.97;;;19.53;;
12088;SDS011;6107;49.078;8.578;2022-12-18T02:41:53;48.37;;;20.37;;
12088;SDS011;6107;49.078;8.578;2022-12-18T02:44:19;52.80;;;20.80;;
12088;SDS011;6107;49.078;8.578;2022-12-18T02:46:46;42.67;;;18.67;;
12088;SDS011;6107;49.078;8.578;2022-12-18T02:49:35;54.37;;;19.67;;
12088;SDS011;6107;49.078;8.578;2022-12-18T03:00:23;45.47;;;19.30;;
12088;SDS011;6107;49.078;8.578;2022-12-18T03:02:59;43.20;;;18.20;;
12088;SDS011;6107;49.078;8.578;2022-12-18T03:05:50;46.77;;;17.90;;
12088;SDS011;6107;49.078;8.578;2022-12-18T03:08:23;50.17;;;18.30;;
12088;SDS011;6107;49.078;8.578;2022-12-18T03:10:57;51.00;;;20.33;;
12088;SDS011;6107;49.078;8.578;2022-12-18T03:13:33;47.23;;;19.40;;
12088;SDS011;6107;49.078;8.578;2022-12-18T03:16:12;44.00;;;17.47;;
12088;SDS011;6107;49.078;8.578;2022-12-18T03:18:47;44.07;;;18.50;;
12088;SDS011;6107;49.078;8.578;2022-12-18T03:21:19;45.87;;;18.97;;
12088;SDS011;6107;49.078;8.578;2022-12-18T03:23:48;44.40;;;17.40;;
12088;SDS011;6107;49.078;8.578;2022-12-18T03:26:16;49.90;;;19.90;;
12088;SDS011;6107;49.078;8.578;2022-12-18T03:28:51;47.83;;;18.33;;
12088;SDS011;6107;49.078;8.578;2022-12-18T03:31:24;47.67;;;17.93;;
12088;SDS011;6107;49.078;8.578;2022-12-18T03:33:55;50.67;;;19.37;;
12088;SDS011;6107;49.078;8.578;2022-12-18T03:36:23;44.77;;;19.67;;
12088;SDS011;6107;49.078;8.578;2022-12-18T03:38:49;47.47;;;18.70;;
12088;SDS011;6107;49.078;8.578;2022-12-18T03:41:28;45.47;;;18.20;;
12088;SDS011;6107;49.078;8.578;2022-12-18T03:44:03;46.87;;;18.27;;
12088;SDS011;6107;49.078;8.578;2022-12-18T03:49:10;41.80;;;18.13;;
12088;SDS011;6107;49.078;8.578;2022-12-18T03:54:41;41.33;;;17.27;;
12088;SDS011;6107;49.078;8.578;2022-12-18T03:57:10;40.53;;;18.47;;
12088;SDS011;6107;49.078;8.578;2022-12-18T04:00:00;41.80;;;17.97;;
12088;SDS011;6107;49.078;8.578;2022-12-18T04:02:31;46.67;;;18.30;;
12088;SDS011;6107;49.078;8.578;2022-12-18T04:04:59;48.90;;;18.00;;
12088;SDS011;6107;49.078;8.578;2022-12-18T04:07:27;49.53;;;18.90;;
12088;SDS011;6107;49.078;8.578;2022-12-18T04:09:54;43.10;;;17.43;;
12088;SDS011;6107;49.078;8.578;2022-12-18T04:12:25;45.57;;;17.63;;
12088;SDS011;6107;49.078;8.578;2022-12-18T04:14:51;42.63;;;16.57;;
12088;SDS011;6107;49.078;8.578;2022-12-18T04:17:17;48.70;;;18.10;;
12088;SDS011;6107;49.078;8.578;2022-12-18T04:19:43;38.97;;;17.13;;
12088;SDS011;6107;49.078;8.578;2022-12-18T04:22:09;47.13;;;17.77;;
12088;SDS011;6107;49.078;8.578;2022-12-18T04:24:35;44.03;;;17.73;;
12088;SDS011;6107;49.078;8.578;2022-12-18T04:27:01;43.93;;;17.53;;
12088;SDS011;6107;49.078;8.578;2022-12-18T04:29:27;44.67;;;17.17;;
12088;SDS011;6107;49.078;8.578;2022-12-18T04:31:53;43.30;;;16.80;;
12088;SDS011;6107;49.078;8.578;2022-12-18T04:34:19;41.93;;;16.77;;
12088;SDS011;6107;49.078;8.578;2022-12-18T04:36:45;36.20;;;16.20;;
12088;SDS011;6107;49.078;8.578;2022-12-18T04:39:11;45.37;;;18.27;;
12088;SDS011;6107;49.078;8.578;2022-12-18T04:41:36;41.90;;;17.47;;
12088;SDS011;6107;49.078;8.578;2022-12-18T04:44:02;43.27;;;16.97;;
12088;SDS011;6107;49.078;8.578;2022-12-18T04:46:28;45.33;;;18.40;;
12088;SDS011;6107;49.078;8.578;2022-12-18T04:48:53;45.50;;;17.33;;
12088;SDS011;6107;49.078;8.578;2022-12-18T04:51:19;48.97;;;17.83;;
12088;SDS011;6107;49.078;8.578;2022-12-18T04:53:44;43.03;;;17.40;;
12088;SDS011;6107;49.078;8.578;2022-12-18T04:56:11;48.60;;;18.37;;
12088;SDS011;6107;49.078;8.578;2022-12-18T04:58:39;45.83;;;16.17;;
12088;SDS011;6107;49.078;8.578;2022-12-18T05:01:05;42.27;;;17.10;;
12088;SDS011;6107;49.078;8.578;2022-12-18T05:03:32;40.20;;;16.37;;
12088;SDS011;6107;49.078;8.578;2022-12-18T05:05:58;43.23;;;15.63;;
12088;SDS011;6107;49.078;8.578;2022-12-18T05:08:24;43.37;;;16.33;;
12088;SDS011;6107;49.078;8.578;2022-12-18T05:10:50;38.17;;;16.20;;
12088;SDS011;6107;49.078;8.578;2022-12-18T05:13:27;36.67;;;15.97;;
12088;SDS011;6107;49.078;8.578;2022-12-18T05:15:53;38.83;;;16.00;;
12088;SDS011;6107;49.078;8.578;2022-12-18T05:18:19;38.90;;;15.60;;
12088;SDS011;6107;49.078;8.578;2022-12-18T05:20:45;41.87;;;15.67;;
12088;SDS011;6107;49.078;8.578;2022-12-18T05:23:10;34.90;;;15.33;;
12088;SDS011;6107;49.078;8.578;2022-12-18T05:25:36;37.53;;;15.57;;
12088;SDS011;6107;49.078;8.578;2022-12-18T05:28:01;40.27;;;15.43;;
12088;SDS011;6107;49.078;8.578;2022-12-18T05:30:27;37.57;;;14.97;;
12088;SDS011;6107;49.078;8.578;2022-12-18T05:32:52;37.90;;;15.73;;
12088;SDS011;6107;49.078;8.578;2022-12-18T05:35:18;41.97;;;14.20;;
12088;SDS011;6107;49.078;8.578;2022-12-18T05:37:44;35.13;;;15.17;;
12088;SDS011;6107;49.078;8.578;2022-12-18T05:40:10;36.07;;;14.80;;
12088;SDS011;6107;49.078;8.578;2022-12-18T05:42:36;45.33;;;17.40;;
12088;SDS011;6107;49.078;8.578;2022-12-18T05:45:02;38.83;;;16.40;;
12088;SDS011;6107;49.078;8.578;2022-12-18T05:47:27;33.47;;;14.67;;
12088;SDS011;6107;49.078;8.578;2022-12-18T05:49:53;38.23;;;14.53;;
12088;SDS011;6107;49.078;8.578;2022-12-18T05:52:19;35.73;;;14.73;;
12088;SDS011;6107;49.078;8.578;2022-12-18T05:54:45;32.57;;;15.70;;
12088;SDS011;6107;49.078;8.578;2022-12-18T05:57:11;35.83;;;15.30;;
12088;SDS011;6107;49.078;8.578;2022-12-18T05:59:36;32.70;;;14.13;;
12088;SDS011;6107;49.078;8.578;2022-12-18T06:02:02;32.07;;;14.10;;
12088;SDS011;6107;49.078;8.578;2022-12-18T06:04:27;33.73;;;14.77;;
12088;SDS011;6107;49.078;8.578;2022-12-18T06:06:56;38.83;;;15.37;;
12088;SDS011;6107;49.078;8.578;2022-12-18T06:09:22;33.80;;;14.17;;
12088;SDS011;6107;49.078;8.578;2022-12-18T06:11:47;40.13;;;13.50;;
12088;SDS011;6107;49.078;8.578;2022-12-18T06:14:13;36.60;;;14.83;;
12088;SDS011;6107;49.078;8.578;2022-12-18T06:16:38;32.67;;;13.43;;
12088;SDS011;6107;49.078;8.578;2022-12-18T06:19:05;36.03;;;14.93;;
12088;SDS011;6107;49.078;8.578;2022-12-18T06:21:31;41.57;;;14.07;;
12088;SDS011;6107;49.078;8.578;2022-12-18T06:23:57;37.13;;;14.90;;
12088;SDS011;6107;49.078;8.578;2022-12-18T06:26:24;35.93;;;16.30;;
12088;SDS011;6107;49.078;8.578;2022-12-18T06:28:50;42.87;;;15.27;;
12088;SDS011;6107;49.078;8.578;2022-12-18T06:31:15;43.43;;;15.87;;
12088;SDS011;6107;49.078;8.578;2022-12-18T06:33:41;38.57;;;15.30;;
12088;SDS011;6107;49.078;8.578;2022-12-18T06:36:07;48.90;;;17.07;;
12088;SDS011;6107;49.078;8.578;2022-12-18T06:38:35;44.80;;;14.47;;
12088;SDS011;6107;49.078;8.578;2022-12-18T06:41:07;44.70;;;15.00;;
12088;SDS011;6107;49.078;8.578;2022-12-18T06:43:34;45.60;;;15.37;;
12088;SDS011;6107;49.078;8.578;2022-12-18T06:46:00;44.13;;;17.13;;
12088;SDS011;6107;49.078;8.578;2022-12-18T06:48:28;37.07;;;14.17;;
12088;SDS011;6107;49.078;8.578;2022-12-18T06:50:54;41.17;;;14.37;;
12088;SDS011;6107;49.078;8.578;2022-12-18T06:53:20;45.43;;;15.93;;
12088;SDS011;6107;49.078;8.578;2022-12-18T06:55:46;38.37;;;16.53;;
12088;SDS011;6107;49.078;8.578;2022-12-18T06:58:11;46.80;;;15.53;;
12088;SDS011;6107;49.078;8.578;2022-12-18T07:00:37;47.53;;;18.03;;
12088;SDS011;6107;49.078;8.578;2022-12-18T07:03:02;48.90;;;16.97;;
12088;SDS011;6107;49.078;8.578;2022-12-18T07:05:28;39.57;;;14.93;;
12088;SDS011;6107;49.078;8.578;2022-12-18T07:07:54;45.93;;;17.90;;
12088;SDS011;6107;49.078;8.578;2022-12-18T07:10:19;47.73;;;17.33;;
12088;SDS011;6107;49.078;8.578;2022-12-18T07:12:45;54.17;;;16.90;;
12088;SDS011;6107;49.078;8.578;2022-12-18T07:15:11;47.03;;;17.47;;
12088;SDS011;6107;49.078;8.578;2022-12-18T07:17:36;41.63;;;16.07;;
12088;SDS011;6107;49.078;8.578;2022-12-18T07:20:02;38.93;;;14.63;;
12088;SDS011;6107;49.078;8.578;2022-12-18T07:22:28;51.40;;;17.53;;
12088;SDS011;6107;49.078;8.578;2022-12-18T07:24:53;60.97;;;19.63;;
12088;SDS011;6107;49.078;8.578;2022-12-18T07:27:20;50.33;;;17.87;;
12088;SDS011;6107;49.078;8.578;2022-12-18T07:29:45;46.50;;;18.77;;
12088;SDS011;6107;49.078;8.578;2022-12-18T07:32:11;44.47;;;17.13;;
12088;SDS011;6107;49.078;8.578;2022-12-18T07:34:36;46.20;;;16.80;;
12088;SDS011;6107;49.078;8.578;2022-12-18T07:37:02;41.27;;;15.27;;
12088;SDS011;6107;49.078;8.578;2022-12-18T07:39:28;48.23;;;17.70;;
12088;SDS011;6107;49.078;8.578;2022-12-18T07:41:53;54.30;;;18.27;;
12088;SDS011;6107;49.078;8.578;2022-12-18T07:44:38;42.47;;;14.67;;
12088;SDS011;6107;49.078;8.578;2022-12-18T07:47:04;46.00;;;16.30;;
12088;SDS011;6107;49.078;8.578;2022-12-18T07:49:30;44.67;;;16.33;;
12088;SDS011;6107;49.078;8.578;2022-12-18T07:51:55;48.97;;;16.60;;
12088;SDS011;6107;49.078;8.578;2022-12-18T07:54:23;55.37;;;17.07;;
12088;SDS011;6107;49.078;8.578;2022-12-18T07:56:50;53.37;;;15.17;;
12088;SDS011;6107;49.078;8.578;2022-12-18T07:59:16;50.23;;;16.70;;
12088;SDS011;6107;49.078;8.578;2022-12-18T08:01:42;51.83;;;15.83;;
12088;SDS011;6107;49.078;8.578;2022-12-18T08:04:08;40.03;;;15.27;;
12088;SDS011;6107;49.078;8.578;2022-12-18T08:06:34;42.43;;;16.80;;
12088;SDS011;6107;49.078;8.578;2022-12-18T08:09:00;48.10;;;16.37;;
12088;SDS011;6107;49.078;8.578;2022-12-18T08:11:26;38.23;;;14.87;;
12088;SDS011;6107;49.078;8.578;2022-12-18T08:13:53;42.30;;;16.17;;
12088;SDS011;6107;49.078;8.578;2022-12-18T08:16:18;49.27;;;15.33;;
12088;SDS011;6107;49.078;8.578;2022-12-18T08:18:44;36.83;;;15.33;;
12088;SDS011;6107;49.078;8.578;2022-12-18T08:23:37;44.70;;;16.07;;
12088;SDS011;6107;49.078;8.578;2022-12-18T08:26:03;60.63;;;18.70;;
12088;SDS011;6107;49.078;8.578;2022-12-18T08:28:34;44.70;;;17.53;;
12088;SDS011;6107;49.078;8.578;2022-12-18T08:30:59;39.47;;;13.93;;
12088;SDS011;6107;49.078;8.578;2022-12-18T08:33:25;48.13;;;17.93;;
12088;SDS011;6107;49.078;8.578;2022-12-18T08:35:51;52.80;;;18.70;;
12088;SDS011;6107;49.078;8.578;2022-12-18T08:38:17;45.77;;;17.60;;
12088;SDS011;6107;49.078;8.578;2022-12-18T08:40:43;48.03;;;17.20;;
12088;SDS011;6107;49.078;8.578;2022-12-18T08:43:09;50.97;;;17.97;;
12088;SDS011;6107;49.078;8.578;2022-12-18T08:45:54;53.53;;;18.23;;
12088;SDS011;6107;49.078;8.578;2022-12-18T08:48:20;57.23;;;19.73;;
12088;SDS011;6107;49.078;8.578;2022-12-18T08:51:07;43.70;;;17.63;;
12088;SDS011;6107;49.078;8.578;2022-12-18T08:53:31;58.90;;;19.73;;
12088;SDS011;6107;49.078;8.578;2022-12-18T08:56:00;51.53;;;19.10;;
12088;SDS011;6107;49.078;8.578;2022-12-18T08:58:25;54.07;;;20.77;;
12088;SDS011;6107;49.078;8.578;2022-12-18T09:00:51;54.67;;;21.87;;
12088;SDS011;6107;49.078;8.578;2022-12-18T09:03:17;47.50;;;19.47;;
12088;SDS011;6107;49.078;8.578;2022-12-18T09:05:45;49.53;;;20.17;;
12088;SDS011;6107;49.078;8.578;2022-12-18T09:08:11;51.30;;;20.00;;
12088;SDS011;6107;49.078;8.578;2022-12-18T09:10:43;46.70;;;18.67;;
12088;SDS011;6107;49.078;8.578;2022-12-18T09:13:10;45.00;;;17.73;;
12088;SDS011;6107;49.078;8.578;2022-12-18T09:15:42;50.00;;;20.60;;
12088;SDS011;6107;49.078;8.578;2022-12-18T09:18:12;50.10;;;19.27;;
12088;SDS011;6107;49.078;8.578;2022-12-18T09:20:39;52.00;;;21.00;;
12088;SDS011;6107;49.078;8.578;2022-12-18T09:23:05;58.20;;;21.53;;
12088;SDS011;6107;49.078;8.578;2022-12-18T09:25:32;51.73;;;20.37;;
12088;SDS011;6107;49.078;8.578;2022-12-18T09:28:00;60.30;;;23.90;;
12088;SDS011;6107;49.078;8.578;2022-12-18T09:30:30;52.53;;;21.17;;
12088;SDS011;6107;49.078;8.578;2022-12-18T09:32:58;50.27;;;20.23;;
12088;SDS011;6107;49.078;8.578;2022-12-18T09:35:24;48.67;;;20.47;;
12088;SDS011;6107;49.078;8.578;2022-12-18T09:37:49;52.93;;;20.90;;
12088;SDS011;6107;49.078;8.578;2022-12-18T09:40:19;49.90;;;20.33;;
12088;SDS011;6107;49.078;8.578;2022-12-18T09:42:48;53.20;;;22.03;;
12088;SDS011;6107;49.078;8.578;2022-12-18T09:45:18;57.23;;;22.83;;
12088;SDS011;6107;49.078;8.578;2022-12-18T09:47:45;59.07;;;21.50;;
12088;SDS011;6107;49.078;8.578;2022-12-18T09:50:22;59.13;;;22.37;;
12088;SDS011;6107;49.078;8.578;2022-12-18T09:52:55;48.90;;;19.57;;
12088;SDS011;6107;49.078;8.578;2022-12-18T09:57:56;59.80;;;21.47;;
12088;SDS011;6107;49.078;8.578;2022-12-18T10:00:30;48.23;;;18.77;;
12088;SDS011;6107;49.078;8.578;2022-12-18T10:02:58;50.27;;;19.70;;
12088;SDS011;6107;49.078;8.578;2022-12-18T10:11:29;54.73;;;21.33;;
12088;SDS011;6107;49.078;8.578;2022-12-18T10:19:44;50.10;;;21.37;;
12088;SDS011;6107;49.078;8.578;2022-12-18T10:27:55;53.40;;;21.70;;
12088;SDS011;6107;49.078;8.578;2022-12-18T10:30:23;56.20;;;22.57;;
12088;SDS011;6107;49.078;8.578;2022-12-18T10:32:50;57.73;;;22.47;;
12088;SDS011;6107;49.078;8.578;2022-12-18T10:35:18;50.03;;;20.90;;
12088;SDS011;6107;49.078;8.578;2022-12-18T10:40:31;51.93;;;20.80;;
12088;SDS011;6107;49.078;8.578;2022-12-18T10:43:30;56.97;;;22.83;;
12088;SDS011;6107;49.078;8.578;2022-12-18T10:46:00;54.33;;;22.23;;
12088;SDS011;6107;49.078;8.578;2022-12-18T10:48:30;101.23;;;40.73;;
12088;SDS011;6107;49.078;8.578;2022-12-18T10:50:58;61.47;;;27.00;;
12088;SDS011;6107;49.078;8.578;2022-12-18T10:53:25;91.97;;;39.20;;
12088;SDS011;6107;49.078;8.578;2022-12-18T10:55:55;53.47;;;21.87;;
12088;SDS011;6107;49.078;8.578;2022-12-18T10:58:24;63.27;;;23.57;;
12088;SDS011;6107;49.078;8.578;2022-12-18T11:03:42;59.73;;;22.17;;
12088;SDS011;6107;49.078;8.578;2022-12-18T11:08:42;52.63;;;21.73;;
12088;SDS011;6107;49.078;8.578;2022-12-18T11:11:19;55.67;;;23.33;;
12088;SDS011;6107;49.078;8.578;2022-12-18T11:13:53;51.43;;;22.07;;
12088;SDS011;6107;49.078;8.578;2022-12-18T11:16:27;48.43;;;23.13;;
12088;SDS011;6107;49.078;8.578;2022-12-18T11:18:55;54.00;;;24.33;;
12088;SDS011;6107;49.078;8.578;2022-12-18T11:21:41;54.83;;;23.67;;
12088;SDS011;6107;49.078;8.578;2022-12-18T11:24:14;55.40;;;22.77;;
12088;SDS011;6107;49.078;8.578;2022-12-18T11:26:46;45.17;;;20.47;;
12088;SDS011;6107;49.078;8.578;2022-12-18T11:29:16;53.70;;;22.37;;
12088;SDS011;6107;49.078;8.578;2022-12-18T11:31:43;49.03;;;20.30;;
12088;SDS011;6107;49.078;8.578;2022-12-18T11:34:14;48.50;;;21.07;;
12088;SDS011;6107;49.078;8.578;2022-12-18T11:36:51;52.50;;;21.17;;
12088;SDS011;6107;49.078;8.578;2022-12-18T11:39:19;51.27;;;21.43;;
12088;SDS011;6107;49.078;8.578;2022-12-18T11:44:46;57.30;;;20.90;;
12088;SDS011;6107;49.078;8.578;2022-12-18T11:49:53;49.23;;;21.40;;
12088;SDS011;6107;49.078;8.578;2022-12-18T11:52:26;50.10;;;21.00;;
12088;SDS011;6107;49.078;8.578;2022-12-18T11:55:13;47.27;;;21.00;;
12088;SDS011;6107;49.078;8.578;2022-12-18T12:03:54;48.60;;;21.37;;
12088;SDS011;6107;49.078;8.578;2022-12-18T12:06:35;50.03;;;20.67;;
12088;SDS011;6107;49.078;8.578;2022-12-18T12:17:32;49.87;;;21.20;;
12088;SDS011;6107;49.078;8.578;2022-12-18T12:22:58;48.60;;;20.30;;
12088;SDS011;6107;49.078;8.578;2022-12-18T12:25:59;44.83;;;20.23;;
12088;SDS011;6107;49.078;8.578;2022-12-18T12:28:41;48.93;;;20.47;;
12088;SDS011;6107;49.078;8.578;2022-12-18T12:39:53;51.77;;;23.17;;
12088;SDS011;6107;49.078;8.578;2022-12-18T12:42:23;52.23;;;22.37;;
12088;SDS011;6107;49.078;8.578;2022-12-18T12:45:26;53.20;;;22.87;;
12088;SDS011;6107;49.078;8.578;2022-12-18T12:48:18;51.57;;;22.77;;
12088;SDS011;6107;49.078;8.578;2022-12-18T12:51:21;47.67;;;23.43;;
12088;SDS011;6107;49.078;8.578;2022-12-18T12:53:53;61.07;;;26.00;;
12088;SDS011;6107;49.078;8.578;2022-12-18T12:56:21;63.23;;;25.60;;
12088;SDS011;6107;49.078;8.578;2022-12-18T12:59:13;63.50;;;28.23;;
12088;SDS011;6107;49.078;8.578;2022-12-18T13:01:47;60.70;;;27.20;;
12088;SDS011;6107;49.078;8.578;2022-12-18T13:07:10;54.03;;;25.90;;
12088;SDS011;6107;49.078;8.578;2022-12-18T13:12:51;54.27;;;23.93;;
12088;SDS011;6107;49.078;8.578;2022-12-18T13:15:22;61.17;;;25.07;;
12088;SDS011;6107;49.078;8.578;2022-12-18T13:20:37;55.03;;;23.47;;
12088;SDS011;6107;49.078;8.578;2022-12-18T13:36:51;59.00;;;24.53;;
12088;SDS011;6107;49.078;8.578;2022-12-18T13:41:44;56.57;;;24.37;;
12088;SDS011;6107;49.078;8.578;2022-12-18T13:44:23;51.17;;;24.33;;
12088;SDS011;6107;49.078;8.578;2022-12-18T13:47:05;56.20;;;24.80;;
12088;SDS011;6107;49.078;8.578;2022-12-18T13:49:56;52.83;;;23.13;;
12088;SDS011;6107;49.078;8.578;2022-12-18T13:52:23;53.13;;;25.00;;
12088;SDS011;6107;49.078;8.578;2022-12-18T13:54:52;56.77;;;24.33;;
12088;SDS011;6107;49.078;8.578;2022-12-18T13:57:30;43.50;;;20.37;;
12088;SDS011;6107;49.078;8.578;2022-12-18T14:02:46;49.77;;;19.70;;
12088;SDS011;6107;49.078;8.578;2022-12-18T14:07:52;41.50;;;17.80;;
12088;SDS011;6107;49.078;8.578;2022-12-18T14:10:19;43.37;;;19.20;;
12088;SDS011;6107;49.078;8.578;2022-12-18T14:12:47;45.53;;;18.43;;
12088;SDS011;6107;49.078;8.578;2022-12-18T14:20:28;38.27;;;17.10;;
12088;SDS011;6107;49.078;8.578;2022-12-18T14:22:57;44.60;;;18.57;;
12088;SDS011;6107;49.078;8.578;2022-12-18T14:25:29;47.70;;;20.90;;
12088;SDS011;6107;49.078;8.578;2022-12-18T14:28:02;48.37;;;19.27;;
12088;SDS011;6107;49.078;8.578;2022-12-18T14:30:32;42.83;;;19.03;;
12088;SDS011;6107;49.078;8.578;2022-12-18T14:35:39;42.87;;;17.73;;
12088;SDS011;6107;49.078;8.578;2022-12-18T14:38:25;41.63;;;18.80;;
12088;SDS011;6107;49.078;8.578;2022-12-18T14:40:57;45.73;;;19.60;;
12088;SDS011;6107;49.078;8.578;2022-12-18T14:43:24;40.70;;;18.27;;
12088;SDS011;6107;49.078;8.578;2022-12-18T14:45:51;47.47;;;20.70;;
12088;SDS011;6107;49.078;8.578;2022-12-18T14:48:19;46.97;;;19.73;;
12088;SDS011;6107;49.078;8.578;2022-12-18T14:50:57;48.20;;;19.87;;
12088;SDS011;6107;49.078;8.578;2022-12-18T14:53:32;38.23;;;17.90;;
12088;SDS011;6107;49.078;8.578;2022-12-18T14:56:00;39.43;;;18.57;;
12088;SDS011;6107;49.078;8.578;2022-12-18T14:58:27;41.17;;;17.63;;
12088;SDS011;6107;49.078;8.578;2022-12-18T15:00:53;43.20;;;18.20;;
12088;SDS011;6107;49.078;8.578;2022-12-18T15:03:19;44.67;;;20.13;;
12088;SDS011;6107;49.078;8.578;2022-12-18T15:05:46;46.80;;;20.83;;
12088;SDS011;6107;49.078;8.578;2022-12-18T15:08:29;49.13;;;21.90;;
12088;SDS011;6107;49.078;8.578;2022-12-18T15:11:01;46.53;;;21.10;;
12088;SDS011;6107;49.078;8.578;2022-12-18T15:13:27;45.60;;;20.43;;
12088;SDS011;6107;49.078;8.578;2022-12-18T15:15:54;44.13;;;19.57;;
12088;SDS011;6107;49.078;8.578;2022-12-18T15:18:25;40.03;;;17.57;;
12088;SDS011;6107;49.078;8.578;2022-12-18T15:20:57;41.13;;;16.23;;
12088;SDS011;6107;49.078;8.578;2022-12-18T15:26:10;43.40;;;17.73;;
12088;SDS011;6107;49.078;8.578;2022-12-18T15:28:52;41.33;;;17.47;;
12088;SDS011;6107;49.078;8.578;2022-12-18T15:31:22;44.00;;;19.73;;
12088;SDS011;6107;49.078;8.578;2022-12-18T15:36:18;41.37;;;17.40;;
12088;SDS011;6107;49.078;8.578;2022-12-18T15:38:51;43.83;;;17.37;;
12088;SDS011;6107;49.078;8.578;2022-12-18T15:41:19;43.73;;;18.63;;
12088;SDS011;6107;49.078;8.578;2022-12-18T15:43:47;39.27;;;16.57;;
12088;SDS011;6107;49.078;8.578;2022-12-18T15:46:15;51.20;;;20.00;;
12088;SDS011;6107;49.078;8.578;2022-12-18T15:48:44;39.40;;;16.30;;
12088;SDS011;6107;49.078;8.578;2022-12-18T15:51:28;41.00;;;17.13;;
12088;SDS011;6107;49.078;8.578;2022-12-18T15:53:56;35.97;;;13.30;;
12088;SDS011;6107;49.078;8.578;2022-12-18T15:56:24;37.67;;;15.63;;
12088;SDS011;6107;49.078;8.578;2022-12-18T15:59:13;40.13;;;16.17;;
12088;SDS011;6107;49.078;8.578;2022-12-18T16:01:40;37.33;;;15.37;;
12088;SDS011;6107;49.078;8.578;2022-12-18T16:04:08;83.33;;;27.03;;
12088;SDS011;6107;49.078;8.578;2022-12-18T16:06:36;51.53;;;20.47;;
12088;SDS011;6107;49.078;8.578;2022-12-18T16:09:02;39.57;;;15.70;;
12088;SDS011;6107;49.078;8.578;2022-12-18T16:11:28;45.87;;;18.07;;
12088;SDS011;6107;49.078;8.578;2022-12-18T16:14:16;38.17;;;15.97;;
12088;SDS011;6107;49.078;8.578;2022-12-18T16:16:43;43.07;;;16.93;;
12088;SDS011;6107;49.078;8.578;2022-12-18T16:19:19;41.67;;;17.30;;
12088;SDS011;6107;49.078;8.578;2022-12-18T16:21:46;43.30;;;16.57;;
12088;SDS011;6107;49.078;8.578;2022-12-18T16:24:14;35.27;;;15.03;;
12088;SDS011;6107;49.078;8.578;2022-12-18T16:26:41;38.73;;;15.17;;
12088;SDS011;6107;49.078;8.578;2022-12-18T16:29:07;35.60;;;14.10;;
12088;SDS011;6107;49.078;8.578;2022-12-18T16:31:33;47.73;;;18.57;;
12088;SDS011;6107;49.078;8.578;2022-12-18T16:36:55;43.67;;;17.53;;
12088;SDS011;6107;49.078;8.578;2022-12-18T16:39:23;39.13;;;16.33;;
12088;SDS011;6107;49.078;8.578;2022-12-18T16:41:48;37.77;;;16.23;;
12088;SDS011;6107;49.078;8.578;2022-12-18T16:44:14;43.37;;;18.00;;
12088;SDS011;6107;49.078;8.578;2022-12-18T16:46:40;39.77;;;18.07;;
12088;SDS011;6107;49.078;8.578;2022-12-18T16:49:08;45.47;;;18.73;;
12088;SDS011;6107;49.078;8.578;2022-12-18T16:51:35;42.13;;;18.97;;
12088;SDS011;6107;49.078;8.578;2022-12-18T16:54:00;46.00;;;18.60;;
12088;SDS011;6107;49.078;8.578;2022-12-18T16:56:26;54.50;;;20.33;;
12088;SDS011;6107;49.078;8.578;2022-12-18T16:58:52;48.47;;;21.00;;
12088;SDS011;6107;49.078;8.578;2022-12-18T17:01:19;49.30;;;20.20;;
12088;SDS011;6107;49.078;8.578;2022-12-18T17:06:18;43.03;;;19.43;;
12088;SDS011;6107;49.078;8.578;2022-12-18T17:08:44;46.67;;;20.27;;